Time;durP1;ratioP1;P1;durP2;ratioP2;P2;SDS_P1;SDS_P2;PMS_P1;PMS_P2;Temp;Humidity;BMP_temperature;BMP_pressure;BME280_temperature;BME280_humidity;BME280_pressure;Samples;Min_cycle;Max_cycle;Signal;HPM_P1;HPM_P2
2022/05/03 00:00:00;;;;;;;2.78;1.88;;;5.70;99.90;;;;;;4992382;28;20077;-51
2022/05/03 00:02:47;;;;;;;2.30;1.40;;;5.70;99.90;;;;;;4972961;28;20037;-48
2022/05/03 00:05:36;;;;;;;1.98;1.70;;;5.70;99.90;;;;;;4962095;28;20026;-47
2022/05/03 00:08:19;;;;;;;1.90;1.73;;;5.70;99.90;;;;;;4992354;28;20098;-53
2022/05/03 00:11:12;;;;;;;3.63;2.00;;;5.60;99.90;;;;;;4992326;28;20449;-51
2022/05/03 00:13:56;;;;;;;2.08;1.88;;;5.60;99.90;;;;;;4991889;28;20042;-51
2022/05/03 00:16:23;;;;;;;2.50;2.03;;;5.60;99.90;;;;;;4991672;28;20486;-51
2022/05/03 00:18:49;;;;;;;2.83;2.20;;;5.50;99.90;;;;;;4991817;28;20077;-48
2022/05/03 00:21:15;;;;;;;3.35;2.00;;;5.50;99.90;;;;;;4991590;28;20042;-51
2022/05/03 00:23:42;;;;;;;3.92;1.95;;;5.50;99.90;;;;;;4991926;28;20408;-48
2022/05/03 00:26:08;;;;;;;2.90;2.13;;;5.50;99.90;;;;;;4991776;28;20035;-49
2022/05/03 00:28:35;;;;;;;2.75;2.00;;;5.40;99.90;;;;;;4991690;28;20038;-47
2022/05/03 00:31:02;;;;;;;2.80;2.40;;;5.40;99.90;;;;;;4974114;28;20027;-51
2022/05/03 00:33:32;;;;;;;2.08;1.83;;;5.30;99.90;;;;;;4991142;28;20041;-51
2022/05/03 00:35:58;;;;;;;2.70;2.50;;;5.40;99.90;;;;;;4989659;28;20027;-47
2022/05/03 00:38:23;;;;;;;4.22;1.85;;;5.30;99.90;;;;;;4991697;28;20133;-47
2022/05/03 00:40:56;;;;;;;4.45;2.40;;;5.30;99.90;;;;;;4991230;28;20038;-50
2022/05/03 00:43:30;;;;;;;3.20;2.53;;;5.30;99.90;;;;;;4976478;28;20106;-47
2022/05/03 00:46:03;;;;;;;3.15;2.50;;;5.30;99.90;;;;;;5010990;28;20029;-50
2022/05/03 00:49:02;;;;;;;3.95;2.83;;;5.20;99.90;;;;;;5003553;28;20041;-47
2022/05/03 00:51:53;;;;;;;4.40;2.72;;;5.20;99.90;;;;;;4990606;28;20482;-51
2022/05/03 00:54:44;;;;;;;3.13;2.65;;;5.20;99.90;;;;;;4980704;28;20457;-47
2022/05/03 00:57:31;;;;;;;2.80;2.50;;;5.20;99.90;;;;;;4991148;28;20109;-49
2022/05/03 00:59:56;;;;;;;;;;;5.20;99.90;;;;;;4969574;28;20446;-49
2022/05/03 01:02:53;;;;;;;3.47;2.77;;;5.10;99.90;;;;;;4988653;28;19968;-48
2022/05/03 01:05:41;;;;;;;3.60;2.38;;;5.10;99.90;;;;;;4959232;28;20034;-48
2022/05/03 01:08:08;;;;;;;3.13;2.45;;;5.10;99.90;;;;;;4970124;28;20042;-47
2022/05/03 01:10:48;;;;;;;2.90;2.60;;;5.10;99.90;;;;;;4990510;28;20422;-50
2022/05/03 01:13:29;;;;;;;5.05;2.95;;;5.10;99.90;;;;;;4971406;28;20622;-49
2022/05/03 01:16:31;;;;;;;3.45;2.65;;;5.10;99.90;;;;;;4975340;28;20057;-48
2022/05/03 01:19:23;;;;;;;4.38;2.95;;;5.10;99.90;;;;;;4990893;28;20026;-47
2022/05/03 01:22:23;;;;;;;4.88;3.22;;;5.00;99.90;;;;;;4989998;28;20018;-48
2022/05/03 01:25:07;;;;;;;5.18;2.72;;;5.00;99.90;;;;;;4991121;28;20018;-47
2022/05/03 01:27:47;;;;;;;3.60;3.08;;;5.00;99.90;;;;;;4990073;28;20494;-48
2022/05/03 01:30:14;;;;;;;3.40;2.53;;;5.00;99.90;;;;;;4991174;28;20037;-48
2022/05/03 01:32:43;;;;;;;3.58;2.90;;;4.90;99.90;;;;;;4990443;28;20031;-47
2022/05/03 01:35:11;;;;;;;4.70;3.38;;;4.90;99.90;;;;;;4990519;28;20030;-47
2022/05/03 01:37:56;;;;;;;6.88;3.10;;;4.90;99.90;;;;;;4990492;28;20014;-50
2022/05/03 01:40:40;;;;;;;4.20;3.50;;;4.90;99.90;;;;;;4990684;28;20023;-48
2022/05/03 01:43:43;;;;;;;3.60;2.80;;;4.80;99.90;;;;;;4990272;28;20026;-49
2022/05/03 01:46:28;;;;;;;5.65;3.50;;;4.90;99.90;;;;;;4979566;28;20046;-47
2022/05/03 01:52:17;;;;;;;4.82;3.47;;;4.80;99.90;;;;;;4978319;28;20115;-51
2022/05/03 01:55:14;;;;;;;7.95;3.45;;;4.80;99.90;;;;;;4989607;28;20037;-47
2022/05/03 01:57:59;;;;;;;;;;;4.70;99.90;;;;;;4984635;28;20043;-47
2022/05/03 02:00:25;;;;;;;4.22;3.38;;;4.70;99.90;;;;;;4990137;28;19913;-46
2022/05/03 02:03:27;;;;;;;4.78;3.40;;;4.70;99.90;;;;;;4989360;28;20026;-49
2022/05/03 02:06:14;;;;;;;6.05;3.80;;;4.70;99.90;;;;;;4962951;28;20073;-51
2022/05/03 02:09:03;;;;;;;5.95;4.03;;;4.70;99.90;;;;;;4968648;28;20022;-52
2022/05/03 02:11:51;;;;;;;6.22;4.15;;;4.60;99.90;;;;;;4972133;28;20451;-52
2022/05/03 02:14:45;;;;;;;4.35;3.38;;;4.60;99.90;;;;;;4979120;28;20128;-51
2022/05/03 02:17:25;;;;;;;5.18;3.80;;;4.60;99.90;;;;;;4972543;28;20110;-49
2022/05/03 02:20:12;;;;;;;4.50;4.10;;;4.50;99.90;;;;;;4981824;28;20086;-48
2022/05/03 02:23:03;;;;;;;5.85;4.40;;;4.50;99.90;;;;;;4989211;28;20034;-50
2022/05/03 02:25:34;;;;;;;5.18;4.47;;;4.50;99.90;;;;;;4989350;28;20034;-50
2022/05/03 02:28:04;;;;;;;5.45;4.57;;;4.50;99.90;;;;;;4989730;28;20054;-52
2022/05/03 02:30:35;;;;;;;7.60;4.55;;;4.50;99.90;;;;;;4989747;28;20026;-53
2022/05/03 02:33:04;;;;;;;6.50;5.28;;;4.50;99.90;;;;;;4971662;28;20027;-50
2022/05/03 02:35:33;;;;;;;6.80;5.70;;;4.50;99.90;;;;;;4989338;28;20089;-50
2022/05/03 02:38:04;;;;;;;9.02;6.00;;;4.50;99.90;;;;;;4991095;28;20049;-50
2022/05/03 02:40:32;;;;;;;8.68;5.75;;;4.40;99.90;;;;;;4995931;28;20022;-48
2022/05/03 02:42:58;;;;;;;9.18;6.53;;;4.40;99.90;;;;;;4995964;28;20082;-49
2022/05/03 02:45:24;;;;;;;7.28;6.00;;;4.40;99.90;;;;;;4996315;28;20026;-52
2022/05/03 02:48:14;;;;;;;9.80;6.13;;;4.40;99.90;;;;;;4995850;28;20251;-48
2022/05/03 02:50:43;;;;;;;10.40;6.40;;;4.40;99.90;;;;;;4995267;28;20125;-50
2022/05/03 02:53:21;;;;;;;9.75;5.82;;;4.40;99.90;;;;;;4995698;28;20121;-47
2022/05/03 02:55:58;;;;;;;8.27;6.45;;;4.40;99.90;;;;;;4979582;28;20422;-48
2022/05/03 02:58:51;;;;;;;7.75;6.25;;;4.40;99.90;;;;;;4995799;28;20065;-48
2022/05/03 03:01:50;;;;;;;8.70;6.10;;;4.40;99.90;;;;;;4995732;28;20030;-48
2022/05/03 03:04:38;;;;;;;7.55;6.30;;;4.30;99.90;;;;;;4995877;28;20105;-52
2022/05/03 03:07:05;;;;;;;8.38;6.68;;;4.30;99.90;;;;;;4978358;28;20031;-50
2022/05/03 03:09:45;;;;;;;8.15;6.25;;;4.30;99.90;;;;;;4995627;28;20065;-48
2022/05/03 03:12:27;;;;;;;10.23;6.90;;;4.30;99.90;;;;;;4995719;28;20022;-47
2022/05/03 03:15:00;;;;;;;8.20;7.10;;;4.30;99.90;;;;;;4995322;28;20053;-47
2022/05/03 03:17:29;;;;;;;9.90;6.95;;;4.30;99.90;;;;;;4995832;28;20042;-47
2022/05/03 03:19:54;;;;;;;7.55;6.30;;;4.30;99.90;;;;;;4995698;28;20087;-47
2022/05/03 03:22:21;;;;;;;12.07;7.00;;;4.30;99.90;;;;;;4995186;28;20030;-49
2022/05/03 03:24:48;;;;;;;9.63;7.30;;;4.30;99.90;;;;;;4978463;28;20065;-48
2022/05/03 03:27:14;;;;;;;8.82;6.57;;;4.30;99.90;;;;;;4995953;28;20034;-49
2022/05/03 03:29:41;;;;;;;9.10;6.60;;;4.30;99.90;;;;;;4999203;28;20465;-51
2022/05/03 03:32:09;;;;;;;10.02;7.35;;;4.30;99.90;;;;;;5014867;28;20382;-47
2022/05/03 03:34:42;;;;;;;8.95;7.13;;;4.30;99.90;;;;;;4978334;28;20141;-49
2022/05/03 03:37:07;;;;;;;11.60;7.90;;;4.30;99.90;;;;;;4995933;28;20102;-48
2022/05/03 03:39:34;;;;;;;7.93;6.78;;;4.30;99.90;;;;;;4995051;28;20062;-48
2022/05/03 03:42:07;;;;;;;11.20;7.57;;;4.40;99.90;;;;;;4995121;28;20909;-47
2022/05/03 03:44:33;;;;;;;9.60;7.38;;;4.40;99.90;;;;;;4995077;28;20041;-47
2022/05/03 03:47:00;;;;;;;8.75;7.18;;;4.40;99.90;;;;;;4995369;28;20041;-49
2022/05/03 03:49:29;;;;;;;9.25;7.18;;;4.40;99.90;;;;;;4993421;28;20030;-48
2022/05/03 03:51:57;;;;;;;7.65;6.78;;;4.40;99.90;;;;;;4974661;28;20557;-48
2022/05/03 03:54:24;;;;;;;10.85;8.45;;;4.40;99.90;;;;;;4991836;28;20257;-48
2022/05/03 03:56:51;;;;;;;11.40;8.48;;;4.50;99.90;;;;;;5010750;28;20065;-47
2022/05/03 03:59:18;;;;;;;9.65;7.70;;;4.50;99.90;;;;;;4994347;28;20077;-48
2022/05/03 04:01:43;;;;;;;11.75;7.90;;;4.50;99.90;;;;;;4990759;28;20092;-47
2022/05/03 04:04:11;;;;;;;9.75;8.20;;;4.60;99.90;;;;;;4991861;28;20583;-49
2022/05/03 04:06:37;;;;;;;9.48;7.80;;;4.60;99.90;;;;;;4992091;28;20031;-47
2022/05/03 04:09:02;;;;;;;10.73;7.93;;;4.70;99.90;;;;;;4992237;28;20507;-47
2022/05/03 04:11:28;;;;;;;9.98;8.10;;;4.70;99.90;;;;;;4991377;28;20031;-48
2022/05/03 04:13:54;;;;;;;12.13;8.68;;;4.70;99.90;;;;;;4991653;28;20046;-52
2022/05/03 04:16:19;;;;;;;12.13;8.75;;;4.80;99.90;;;;;;4990945;28;20022;-49
2022/05/03 04:18:45;;;;;;;11.25;8.02;;;4.80;99.90;;;;;;4991275;28;20054;-51
2022/05/03 04:21:16;;;;;;;9.80;7.85;;;4.90;99.90;;;;;;4991602;28;20120;-52
2022/05/03 04:23:42;;;;;;;11.05;8.13;;;4.90;99.90;;;;;;4991380;28;20037;-48
2022/05/03 04:26:11;;;;;;;9.02;7.13;;;5.00;99.90;;;;;;4991298;28;20046;-50
2022/05/03 04:28:37;;;;;;;9.35;7.85;;;5.00;99.90;;;;;;4991191;28;20042;-48
2022/05/03 04:31:03;;;;;;;11.35;8.07;;;5.10;99.90;;;;;;4991263;28;20393;-51
2022/05/03 04:33:29;;;;;;;8.80;7.18;;;5.10;99.90;;;;;;4989535;28;20077;-47
2022/05/03 04:35:54;;;;;;;12.75;8.77;;;5.20;99.90;;;;;;4991152;28;20038;-52
2022/05/03 04:38:20;;;;;;;11.15;7.53;;;5.20;99.90;;;;;;4998673;28;20038;-51
2022/05/03 04:40:45;;;;;;;10.27;7.40;;;5.30;99.90;;;;;;4996644;28;20034;-50
2022/05/03 04:43:11;;;;;;;12.23;8.57;;;5.40;99.90;;;;;;4991570;28;20030;-48
2022/05/03 04:45:37;;;;;;;11.70;8.05;;;5.40;99.90;;;;;;4991323;28;20092;-48
2022/05/03 04:48:03;;;;;;;10.27;7.43;;;5.50;99.90;;;;;;4991214;28;20062;-48
2022/05/03 04:50:29;;;;;;;10.48;7.53;;;5.60;99.90;;;;;;4973824;28;20120;-49
2022/05/03 04:52:56;;;;;;;13.70;8.32;;;5.60;99.90;;;;;;4990586;28;20129;-50
2022/05/03 04:55:23;;;;;;;8.43;7.40;;;5.70;99.90;;;;;;4990756;28;20065;-49
2022/05/03 04:57:49;;;;;;;11.85;8.65;;;5.80;99.90;;;;;;4974035;28;20018;-50
2022/05/03 05:00:15;;;;;;;8.80;7.85;;;5.80;99.90;;;;;;4981069;28;20042;-50
2022/05/03 05:02:41;;;;;;;9.32;7.45;;;5.90;99.90;;;;;;4990240;28;20502;-51
2022/05/03 05:05:07;;;;;;;12.10;8.88;;;5.90;99.90;;;;;;4990664;28;20109;-52
2022/05/03 05:07:33;;;;;;;8.00;7.20;;;6.00;99.90;;;;;;4990549;28;20038;-49
2022/05/03 05:12:42;;;;;;;9.30;7.20;;;6.20;99.90;;;;;;4989908;28;20057;-50
2022/05/03 05:15:08;;;;;;;8.60;7.68;;;6.20;99.90;;;;;;4989677;28;20038;-51
2022/05/03 05:17:34;;;;;;;9.80;7.60;;;6.30;99.90;;;;;;4990780;28;20084;-50
2022/05/03 05:19:59;;;;;;;10.32;7.75;;;6.30;99.90;;;;;;4973377;28;20406;-51
2022/05/03 05:22:25;;;;;;;10.43;7.63;;;6.40;99.90;;;;;;4992506;28;20030;-47
2022/05/03 05:24:51;;;;;;;10.18;8.10;;;6.50;99.90;;;;;;4990444;28;20037;-49
2022/05/03 05:27:17;;;;;;;10.63;8.35;;;6.50;99.90;;;;;;4990772;28;20027;-50
2022/05/03 05:29:42;;;;;;;10.00;6.80;;;6.60;99.90;;;;;;4990537;28;20052;-49
2022/05/03 05:32:08;;;;;;;12.52;8.18;;;6.70;99.90;;;;;;4990219;28;20105;-51
2022/05/03 05:34:34;;;;;;;10.32;8.05;;;6.70;99.90;;;;;;4990883;28;20522;-49
2022/05/03 05:37:00;;;;;;;9.55;8.25;;;6.80;99.90;;;;;;4990471;28;20018;-47
2022/05/03 05:39:25;;;;;;;8.48;7.47;;;6.80;99.90;;;;;;4973830;28;20045;-48
2022/05/03 05:41:56;;;;;;;10.32;8.18;;;6.90;99.90;;;;;;4990510;28;20072;-48
2022/05/03 05:44:21;;;;;;;12.63;8.82;;;6.90;99.90;;;;;;4973238;28;20117;-50
2022/05/03 05:46:47;;;;;;;14.18;9.43;;;6.90;99.90;;;;;;4990738;28;20105;-49
2022/05/03 05:49:12;;;;;;;10.63;8.23;;;7.00;99.90;;;;;;4990773;28;20026;-48
2022/05/03 05:51:38;;;;;;;12.95;8.43;;;7.00;99.90;;;;;;4990160;28;20029;-51
2022/05/03 05:54:04;;;;;;;9.43;7.30;;;7.00;99.90;;;;;;4990020;28;20113;-50
2022/05/03 05:56:30;;;;;;;10.38;8.38;;;7.10;99.90;;;;;;4990715;28;20030;-48
2022/05/03 05:58:56;;;;;;;11.93;9.18;;;7.00;99.90;;;;;;4990162;28;20108;-48
2022/05/03 06:01:26;;;;;;;11.70;9.88;;;7.10;99.90;;;;;;4990407;28;20030;-48
2022/05/03 06:03:52;;;;;;;17.45;9.32;;;7.10;99.90;;;;;;4990034;28;20030;-47
2022/05/03 06:06:17;;;;;;;13.35;9.13;;;7.20;99.90;;;;;;4990758;28;20033;-49
2022/05/03 06:08:43;;;;;;;11.35;8.77;;;7.30;99.90;;;;;;4990203;28;20121;-50
2022/05/03 06:11:09;;;;;;;14.43;10.30;;;7.30;99.90;;;;;;4990273;28;20026;-53
2022/05/03 06:13:35;;;;;;;11.88;9.98;;;7.30;99.90;;;;;;4989132;28;20049;-49
2022/05/03 06:16:11;;;;;;;12.80;10.57;;;7.40;99.90;;;;;;4990116;28;20046;-48
2022/05/03 06:18:37;;;;;;;16.55;11.43;;;7.50;99.90;;;;;;4989997;28;20060;-50
2022/05/03 06:21:05;;;;;;;14.90;11.40;;;7.50;99.90;;;;;;4972827;28;20158;-48
2022/05/03 06:23:31;;;;;;;14.15;10.35;;;7.50;99.90;;;;;;4972413;28;20054;-51
2022/05/03 06:25:58;;;;;;;12.98;10.63;;;7.60;99.90;;;;;;4990080;28;20026;-49
2022/05/03 06:28:24;;;;;;;14.52;11.02;;;7.60;99.90;;;;;;4989991;28;20031;-51
2022/05/03 06:30:49;;;;;;;14.05;10.70;;;7.70;99.90;;;;;;4989998;28;20437;-52
2022/05/03 06:33:15;;;;;;;14.43;10.85;;;7.70;99.90;;;;;;4989201;28;20050;-51
2022/05/03 06:35:41;;;;;;;15.73;11.02;;;7.70;99.90;;;;;;4989409;28;20536;-51
2022/05/03 06:38:06;;;;;;;13.38;11.13;;;7.80;99.90;;;;;;4972327;28;20035;-48
2022/05/03 06:40:32;;;;;;;12.25;10.80;;;7.80;99.90;;;;;;4990256;28;20057;-51
2022/05/03 06:42:58;;;;;;;14.75;11.88;;;7.80;99.90;;;;;;4989641;28;20037;-51
2022/05/03 06:45:24;;;;;;;15.68;11.38;;;7.90;99.90;;;;;;4989977;28;20544;-50
2022/05/03 06:47:50;;;;;;;12.38;10.18;;;8.00;99.90;;;;;;4989368;28;20026;-49
2022/05/03 06:50:16;;;;;;;12.15;10.68;;;8.00;99.90;;;;;;4989800;28;20038;-47
2022/05/03 06:52:42;;;;;;;13.60;10.63;;;8.00;99.90;;;;;;4989481;28;20030;-48
2022/05/03 06:55:09;;;;;;;14.45;11.20;;;8.10;99.90;;;;;;4989595;28;20033;-50
2022/05/03 06:57:35;;;;;;;12.30;10.57;;;8.20;99.90;;;;;;4972404;28;20031;-46
2022/05/03 07:00:02;;;;;;;15.98;10.98;;;8.20;99.90;;;;;;4989418;28;20022;-49
2022/05/03 07:02:32;;;;;;;17.52;11.88;;;8.30;99.90;;;;;;4988716;28;20026;-52
2022/05/03 07:05:01;;;;;;;14.95;11.32;;;8.40;99.90;;;;;;4993171;28;20058;-49
2022/05/03 07:07:30;;;;;;;16.52;11.10;;;8.50;99.90;;;;;;4968517;28;20034;-48
2022/05/03 07:09:56;;;;;;;15.00;11.45;;;8.60;99.90;;;;;;4989544;28;20557;-52
2022/05/03 07:12:21;;;;;;;16.00;11.88;;;8.60;99.90;;;;;;4989060;28;20026;-49
2022/05/03 07:14:47;;;;;;;15.73;10.98;;;8.70;99.90;;;;;;4989496;28;20521;-49
2022/05/03 07:22:58;;;;;;;15.45;11.23;;;8.90;99.90;;;;;;4910600;29;20039;-49
2022/05/03 07:25:24;;;;;;;11.80;10.40;;;9.00;99.90;;;;;;4960834;28;20042;-47
2022/05/03 07:27:51;;;;;;;14.48;11.38;;;9.10;99.90;;;;;;4993360;28;20038;-50
2022/05/03 07:30:18;;;;;;;13.27;10.00;;;9.20;99.90;;;;;;4993334;28;20045;-47
2022/05/03 07:32:44;;;;;;;16.33;10.95;;;9.20;99.90;;;;;;4993004;28;20033;-50
2022/05/03 07:35:11;;;;;;;16.70;11.00;;;9.30;99.90;;;;;;4993155;28;20410;-50
2022/05/03 07:37:37;;;;;;;14.70;10.85;;;9.30;99.90;;;;;;4975831;28;20014;-47
2022/05/03 07:40:07;;;;;;;16.55;11.85;;;9.40;99.90;;;;;;4992973;28;20022;-48
2022/05/03 07:42:32;;;;;;;14.75;11.40;;;9.50;99.90;;;;;;4992557;28;20510;-50
2022/05/03 07:44:58;;;;;;;15.30;10.82;;;9.50;99.90;;;;;;4992877;28;20069;-51
2022/05/03 07:47:24;;;;;;;15.30;11.25;;;9.60;99.90;;;;;;4993193;28;20057;-49
2022/05/03 07:49:50;;;;;;;12.63;9.32;;;9.70;99.90;;;;;;4975627;28;20030;-47
2022/05/03 07:52:15;;;;;;;13.98;10.73;;;9.70;99.90;;;;;;4992539;28;20510;-47
2022/05/03 07:54:42;;;;;;;12.65;10.18;;;9.80;99.90;;;;;;4992887;28;20033;-47
2022/05/03 07:57:08;;;;;;;13.88;10.60;;;9.80;99.90;;;;;;4993053;28;20060;-47
2022/05/03 07:59:34;;;;;;;15.80;11.07;;;9.80;99.90;;;;;;4991767;28;20049;-48
2022/05/03 08:02:00;;;;;;;13.35;9.70;;;9.80;99.90;;;;;;4991759;28;20026;-50
2022/05/03 08:04:26;;;;;;;14.35;8.65;;;9.80;99.90;;;;;;5008239;28;20030;-48
2022/05/03 08:06:52;;;;;;;16.65;10.52;;;9.80;99.90;;;;;;5002767;28;20449;-48
2022/05/03 08:09:17;;;;;;;17.05;10.93;;;9.70;99.90;;;;;;4991905;28;20072;-50
2022/05/03 08:11:43;;;;;;;14.02;10.10;;;9.70;99.90;;;;;;4991692;28;20133;-49
2022/05/03 08:14:09;;;;;;;14.32;8.73;;;9.70;99.90;;;;;;4991628;28;20041;-48
2022/05/03 08:16:35;;;;;;;11.70;6.60;;;9.70;99.90;;;;;;4992553;28;20402;-50
2022/05/03 08:19:01;;;;;;;13.35;5.53;;;9.60;99.90;;;;;;4991871;28;20037;-51
2022/05/03 08:21:27;;;;;;;15.82;7.40;;;9.60;99.90;;;;;;4991942;28;20034;-49
2022/05/03 08:23:54;;;;;;;16.02;6.93;;;9.70;99.90;;;;;;4991700;28;20022;-50
2022/05/03 08:26:20;;;;;;;10.00;5.38;;;9.80;99.90;;;;;;4974632;28;20058;-49
2022/05/03 08:28:46;;;;;;;9.45;5.57;;;9.90;99.90;;;;;;4991663;28;20030;-50
2022/05/03 08:31:12;;;;;;;14.20;5.50;;;10.00;99.90;;;;;;4991479;28;20120;-53
2022/05/03 08:33:37;;;;;;;12.35;5.13;;;10.10;99.90;;;;;;4991698;28;20058;-52
2022/05/03 08:36:04;;;;;;;9.85;4.97;;;10.30;99.90;;;;;;4971007;28;20085;-52
2022/05/03 08:43:58;;;;;;;10.52;4.50;;;11.00;99.90;;;;;;4991135;28;20029;-50
2022/05/03 08:46:24;;;;;;;6.68;4.53;;;11.10;99.90;;;;;;4991459;28;20030;-52
2022/05/03 08:48:55;;;;;;;12.32;3.90;;;11.30;99.90;;;;;;4991792;28;20027;-53
2022/05/03 08:51:22;;;;;;;10.48;3.33;;;11.40;99.90;;;;;;4990862;28;20360;-51
2022/05/03 08:53:48;;;;;;;8.10;3.30;;;11.50;99.90;;;;;;4991475;28;20030;-51
2022/05/03 08:56:17;;;;;;;6.35;3.75;;;11.50;99.90;;;;;;4991224;28;20053;-51
2022/05/03 08:58:43;;;;;;;9.45;4.18;;;11.70;99.90;;;;;;4991278;28;20023;-50
2022/05/03 09:01:10;;;;;;;6.55;3.50;;;11.80;99.90;;;;;;4991293;28;20034;-50
2022/05/03 09:03:37;;;;;;;9.82;3.47;;;11.70;99.90;;;;;;4989101;28;20529;-54
2022/05/03 09:06:03;;;;;;;7.05;3.65;;;11.80;99.90;;;;;;4973845;28;20121;-49
2022/05/03 09:08:29;;;;;;;7.88;4.15;;;12.00;99.90;;;;;;4973025;28;20018;-49
2022/05/03 09:10:54;;;;;;;8.02;3.85;;;12.00;99.90;;;;;;4991429;28;20558;-49
2022/05/03 09:13:23;;;;;;;8.95;3.22;;;12.20;99.90;;;;;;4990206;28;20042;-49
2022/05/03 09:15:56;;;;;;;8.65;4.40;;;12.40;99.90;;;;;;4973985;28;20034;-47
2022/05/03 09:18:29;;;;;;;11.15;4.35;;;12.70;99.90;;;;;;4989931;28;20444;-48
2022/05/03 09:23:50;;;;;;;12.93;4.20;;;13.00;99.90;;;;;;4991170;28;20036;-53
2022/05/03 09:26:24;;;;;;;6.07;3.30;;;13.00;99.90;;;;;;4989581;28;20034;-50
2022/05/03 09:28:55;;;;;;;10.90;3.53;;;12.90;99.90;;;;;;4973205;28;20173;-48
2022/05/03 09:31:31;;;;;;;11.40;4.43;;;12.90;99.90;;;;;;4990368;28;20033;-53
2022/05/03 09:33:58;;;;;;;6.63;3.47;;;12.90;99.90;;;;;;4990415;28;20482;-49
2022/05/03 09:36:24;;;;;;;11.32;3.97;;;12.90;99.90;;;;;;4990629;28;20022;-48
2022/05/03 09:38:53;;;;;;;7.20;3.10;;;13.00;99.90;;;;;;4990780;28;20505;-49
2022/05/03 09:41:19;;;;;;;5.60;2.88;;;13.30;99.90;;;;;;4990019;28;20032;-49
2022/05/03 09:44:05;;;;;;;8.50;3.83;;;13.50;99.90;;;;;;4993966;28;20033;-48
2022/05/03 09:46:48;;;;;;;3.05;2.15;;;13.50;99.90;;;;;;4982599;28;20026;-48
2022/05/03 09:49:13;;;;;;;6.80;2.70;;;13.60;99.90;;;;;;4989938;28;20018;-47
2022/05/03 09:51:39;;;;;;;4.53;1.60;;;13.70;99.90;;;;;;4962606;28;20029;-49
2022/05/03 09:54:05;;;;;;;6.40;2.05;;;13.80;99.90;;;;;;4993299;28;20041;-47
2022/05/03 09:56:33;;;;;;;3.90;1.90;;;13.80;99.90;;;;;;4989979;28;20054;-48
2022/05/03 09:59:08;;;;;;;9.93;2.30;;;13.90;99.90;;;;;;4962780;28;20026;-50
2022/05/03 10:01:35;;;;;;;4.85;2.03;;;14.00;99.90;;;;;;4990257;28;20545;-48
2022/05/03 10:04:01;;;;;;;7.45;2.10;;;14.00;99.90;;;;;;4990201;28;20034;-49
2022/05/03 10:06:29;;;;;;;4.70;2.17;;;13.90;99.90;;;;;;4989728;28;20442;-48
2022/05/03 10:08:55;;;;;;;4.35;1.42;;;14.10;99.90;;;;;;4989616;28;20022;-49
2022/05/03 10:11:26;;;;;;;3.35;1.65;;;14.20;99.90;;;;;;4989163;28;20259;-50
2022/05/03 10:13:53;;;;;;;4.38;2.08;;;14.10;99.90;;;;;;4989235;28;20053;-49
2022/05/03 10:21:55;;;;;;;3.80;1.83;;;13.90;99.90;;;;;;4989528;28;20029;-48
2022/05/03 10:24:22;;;;;;;8.52;2.70;;;13.80;99.90;;;;;;4989236;28;20034;-48
2022/05/03 10:27:06;;;;;;;5.28;2.30;;;13.90;99.90;;;;;;4989289;28;20019;-50
2022/05/03 10:29:36;;;;;;;7.57;2.10;;;14.20;99.90;;;;;;4989073;28;20057;-50
2022/05/03 10:32:08;;;;;;;5.07;1.55;;;14.50;99.90;;;;;;4989461;28;20069;-48
2022/05/03 10:34:42;;;;;;;4.85;1.98;;;14.60;99.90;;;;;;4989403;28;20022;-49
2022/05/03 10:37:11;;;;;;;5.65;2.13;;;14.50;99.60;;;;;;4990330;28;20072;-51
2022/05/03 10:39:46;;;;;;;5.82;2.03;;;14.30;99.90;;;;;;4984959;28;20076;-51
2022/05/03 10:42:13;;;;;;;3.17;1.50;;;14.40;99.90;;;;;;5009349;28;20098;-52
2022/05/03 10:44:42;;;;;;;4.05;1.73;;;14.40;99.80;;;;;;4999058;28;20030;-52
2022/05/03 10:47:09;;;;;;;6.15;2.08;;;14.50;99.90;;;;;;4989907;28;20034;-53
2022/05/03 10:49:35;;;;;;;6.72;2.80;;;14.80;99.90;;;;;;4989730;28;20030;-50
2022/05/03 10:52:15;;;;;;;8.77;1.92;;;14.70;99.00;;;;;;4989781;28;20053;-48
2022/05/03 10:55:04;;;;;;;8.68;2.95;;;14.40;99.60;;;;;;4972187;28;20023;-50
2022/05/03 10:57:30;;;;;;;6.78;2.03;;;14.00;99.90;;;;;;4989924;28;20026;-51
2022/05/03 10:59:56;;;;;;;12.65;3.38;;;14.00;99.90;;;;;;4991522;28;20034;-48
2022/05/03 11:02:22;;;;;;;4.07;2.17;;;14.00;99.90;;;;;;4993617;28;20022;-49
2022/05/03 11:05:14;;;;;;;6.68;2.28;;;14.20;99.60;;;;;;4993648;28;20225;-51
2022/05/03 11:07:41;;;;;;;4.85;1.98;;;14.30;99.90;;;;;;4993789;28;20109;-53
2022/05/03 11:10:39;;;;;;;5.45;2.28;;;14.40;99.60;;;;;;4993555;28;20033;-50
2022/05/03 11:13:05;;;;;;;7.60;2.30;;;14.20;99.10;;;;;;4993222;28;20053;-53
2022/05/03 11:15:30;;;;;;;8.57;2.03;;;14.20;99.10;;;;;;4993560;28;20395;-47
2022/05/03 11:17:56;;;;;;;9.20;2.72;;;14.20;99.90;;;;;;4993484;28;20038;-50
2022/05/03 11:20:25;;;;;;;6.30;1.70;;;14.40;98.90;;;;;;4993510;28;20097;-48
2022/05/03 11:22:50;;;;;;;8.68;2.67;;;14.60;99.60;;;;;;4992995;28;20022;-50
2022/05/03 11:25:16;;;;;;;7.05;2.38;;;14.80;98.90;;;;;;4993090;28;20493;-49
2022/05/03 11:27:43;;;;;;;6.28;2.15;;;14.90;98.30;;;;;;4993502;28;20387;-52
2022/05/03 11:30:11;;;;;;;8.55;2.42;;;14.90;97.50;;;;;;4993382;28;20038;-51
2022/05/03 11:32:39;;;;;;;9.15;2.28;;;15.00;98.90;;;;;;4992982;28;20109;-48
2022/05/03 11:35:19;;;;;;;4.50;2.25;;;14.70;97.20;;;;;;4993295;28;20096;-52
2022/05/03 11:37:59;;;;;;;7.53;1.80;;;14.30;97.50;;;;;;4993380;28;20033;-50
2022/05/03 11:40:28;;;;;;;7.50;2.10;;;14.00;97.40;;;;;;4992800;28;20764;-48
2022/05/03 11:42:54;;;;;;;7.95;2.65;;;14.10;97.70;;;;;;4992856;28;20026;-50
2022/05/03 11:45:20;;;;;;;7.30;2.20;;;14.10;98.50;;;;;;4975628;28;20054;-48
2022/05/03 11:47:50;;;;;;;5.45;1.88;;;14.30;97.60;;;;;;4993100;28;20084;-48
2022/05/03 11:55:59;;;;;;;4.63;1.75;;;15.00;97.40;;;;;;4992939;28;20037;-50
2022/05/03 11:58:27;;;;;;;5.93;1.52;;;14.70;96.10;;;;;;4992673;28;20030;-49
2022/05/03 12:00:53;;;;;;;4.32;2.13;;;14.80;96.60;;;;;;4995763;28;20422;-47
2022/05/03 12:03:18;;;;;;;7.57;2.60;;;15.00;96.60;;;;;;4992418;28;20033;-49
2022/05/03 12:06:04;;;;;;;3.72;2.28;;;15.10;95.60;;;;;;4992166;28;20042;-52
2022/05/03 12:08:31;;;;;;;5.60;2.22;;;15.20;96.20;;;;;;4974316;28;20038;-48
2022/05/03 12:10:57;;;;;;;7.82;1.50;;;15.20;95.00;;;;;;4973820;28;20045;-46
2022/05/03 12:13:22;;;;;;;5.53;1.55;;;15.10;96.50;;;;;;4991821;28;20030;-48
2022/05/03 12:15:56;;;;;;;7.95;2.42;;;15.20;95.90;;;;;;4992075;28;20038;-46
2022/05/03 12:18:28;;;;;;;6.80;2.38;;;15.20;95.10;;;;;;4991698;28;20049;-49
2022/05/03 12:21:07;;;;;;;6.05;2.17;;;15.30;95.40;;;;;;4992020;28;20102;-48
2022/05/03 12:23:36;;;;;;;10.77;2.83;;;15.40;94.80;;;;;;4974550;28;20049;-48
2022/05/03 12:26:15;;;;;;;11.70;2.80;;;15.40;93.60;;;;;;4991128;28;20109;-46
2022/05/03 12:28:47;;;;;;;5.28;1.50;;;15.30;93.60;;;;;;4992312;28;20061;-48
2022/05/03 12:31:14;;;;;;;9.70;1.60;;;15.20;94.00;;;;;;4991965;28;20030;-52
2022/05/03 12:34:01;;;;;;;7.28;2.15;;;15.10;93.30;;;;;;4991610;28;20077;-51
2022/05/03 12:36:38;;;;;;;5.70;1.50;;;14.70;93.90;;;;;;4990456;28;20113;-49
2022/05/03 12:39:18;;;;;;;4.80;1.52;;;14.80;93.80;;;;;;4990842;28;20494;-52
2022/05/03 12:41:52;;;;;;;7.65;1.70;;;14.60;94.10;;;;;;4991755;28;20513;-54
2022/05/03 12:44:19;;;;;;;6.53;2.25;;;14.70;94.60;;;;;;4991679;28;20042;-52
2022/05/03 12:46:44;;;;;;;5.10;1.67;;;14.90;94.50;;;;;;4991895;28;20030;-48
2022/05/03 12:49:12;;;;;;;4.28;1.60;;;15.10;94.00;;;;;;4974865;28;20035;-52
2022/05/03 12:51:46;;;;;;;7.20;2.50;;;15.40;93.60;;;;;;5001003;28;20033;-53
2022/05/03 12:54:12;;;;;;;10.30;1.80;;;15.40;92.80;;;;;;5010806;28;20133;-52
2022/05/03 12:59:25;;;;;;;9.90;2.10;;;15.50;93.10;;;;;;4999856;28;20042;-52
2022/05/03 13:01:53;;;;;;;12.43;2.85;;;15.60;92.70;;;;;;4991041;28;20041;-52
2022/05/03 13:04:19;;;;;;;6.90;2.00;;;15.70;93.00;;;;;;4991403;28;20034;-49
2022/05/03 13:06:46;;;;;;;8.35;1.83;;;15.80;92.30;;;;;;4991819;28;20084;-47
2022/05/03 13:09:11;;;;;;;6.65;2.38;;;15.80;91.70;;;;;;4973676;28;20540;-48
2022/05/03 13:11:40;;;;;;;5.72;1.80;;;15.80;92.20;;;;;;4990882;28;20034;-50
2022/05/03 13:14:07;;;;;;;7.05;2.30;;;15.80;90.80;;;;;;4989962;28;20030;-49
2022/05/03 13:16:33;;;;;;;4.93;2.05;;;16.00;90.90;;;;;;4991121;28;20049;-47
2022/05/03 13:18:59;;;;;;;8.10;2.42;;;16.00;91.30;;;;;;4991071;28;20030;-48
2022/05/03 13:21:25;;;;;;;9.00;2.03;;;16.10;89.60;;;;;;4990706;28;20027;-49
2022/05/03 13:23:50;;;;;;;4.20;1.77;;;16.10;88.50;;;;;;4990598;28;20042;-52
2022/05/03 13:26:16;;;;;;;6.63;1.42;;;16.00;88.30;;;;;;4990816;28;20030;-52
2022/05/03 13:28:42;;;;;;;8.27;2.17;;;15.80;89.30;;;;;;4990958;28;20478;-52
2022/05/03 13:31:08;;;;;;;6.85;1.60;;;15.80;88.10;;;;;;4990907;28;20494;-47
2022/05/03 13:33:33;;;;;;;5.60;2.25;;;15.60;87.10;;;;;;4990092;28;20038;-50
2022/05/03 13:41:27;;;;;;;5.00;1.85;;;15.70;90.10;;;;;;4984433;28;20069;-49
2022/05/03 13:43:53;;;;;;;4.40;2.13;;;15.90;90.00;;;;;;4990943;28;20053;-48